createdAt,value
2023-02-11T00:04:33.721Z,32.40
2023-02-11T00:09:37.885Z,33.80
2023-02-11T00:14:40.769Z,24.10
2023-02-11T00:19:43.682Z,34.10
2023-02-11T00:24:46.370Z,21.60
2023-02-11T00:29:49.513Z,28.10
2023-02-11T00:34:53.435Z,32.70
2023-02-11T00:39:56.221Z,31.60
2023-02-11T00:44:58.903Z,34.70
2023-02-11T00:50:04.699Z,30.70
2023-02-11T00:55:08.808Z,23.40
2023-02-11T01:00:13.590Z,25.60
2023-02-11T01:05:16.371Z,30.20
2023-02-11T01:10:19.385Z,28.70
2023-02-11T01:15:22.714Z,28.60
2023-02-11T01:20:28.072Z,26.20
2023-02-11T01:25:31.360Z,30.90
2023-02-11T01:30:34.286Z,30.60
2023-02-11T01:35:38.918Z,25.40
2023-02-11T01:40:47.564Z,40.50
2023-02-11T01:46:03.904Z,35.90
2023-02-11T01:51:11.506Z,27.00
2023-02-11T01:56:34.964Z,22.90
2023-02-11T02:01:40.713Z,38.20
2023-02-11T02:06:56.167Z,28.80
2023-02-11T02:11:58.862Z,32.50
2023-02-11T02:17:01.654Z,36.60
2023-02-11T02:22:23.209Z,30.60
2023-02-11T02:27:42.265Z,22.90
2023-02-11T02:33:20.481Z,27.00
2023-02-11T02:38:47.007Z,38.20
2023-02-11T02:43:51.399Z,32.60
2023-02-11T02:48:55.440Z,37.10
2023-02-11T02:54:10.300Z,31.00
2023-02-11T02:59:31.650Z,23.60
2023-02-11T03:05:06.613Z,30.80
2023-02-11T03:10:17.209Z,22.90
2023-02-11T03:15:22.669Z,27.20
2023-02-11T03:20:27.511Z,27.90
2023-02-11T03:25:36.435Z,28.30
2023-02-11T03:30:45.913Z,31.30
2023-02-11T03:35:58.828Z,25.30
2023-02-11T03:41:04.828Z,27.60
2023-02-11T03:46:11.037Z,19.60
2023-02-11T03:51:15.964Z,31.20
2023-02-11T03:56:24.088Z,26.20
2023-02-11T04:01:26.925Z,28.80
2023-02-11T04:06:29.732Z,27.70
2023-02-11T04:11:32.501Z,29.40
2023-02-11T04:16:35.794Z,25.50
2023-02-11T04:21:38.505Z,32.40
2023-02-11T04:26:41.197Z,25.50
2023-02-11T04:31:44.071Z,30.40
2023-02-11T04:36:47.305Z,31.90
2023-02-11T04:41:50.124Z,29.90
2023-02-11T04:46:53.226Z,35.90
2023-02-11T04:51:55.964Z,33.30
2023-02-11T04:56:58.732Z,33.40
2023-02-11T05:02:01.444Z,24.90
2023-02-11T05:07:04.158Z,25.80
2023-02-11T05:12:07.647Z,29.60
2023-02-11T05:17:10.347Z,27.10
2023-02-11T05:22:13.068Z,23.50
2023-02-11T05:27:15.868Z,31.70
2023-02-11T05:32:18.588Z,25.30
2023-02-11T05:37:21.880Z,32.00
2023-02-11T05:42:24.784Z,33.40
2023-02-11T05:47:27.890Z,28.70
2023-02-11T05:52:30.640Z,26.50
2023-02-11T05:57:34.398Z,35.50
2023-02-11T06:02:37.172Z,36.00
2023-02-11T06:07:39.964Z,44.00
2023-02-11T06:12:42.698Z,44.00
2023-02-11T06:17:45.407Z,35.50
2023-02-11T06:22:48.204Z,41.50
2023-02-11T06:27:50.926Z,29.00
2023-02-11T06:32:54.827Z,35.30
2023-02-11T06:37:57.936Z,35.60
2023-02-11T06:43:00.847Z,31.70
2023-02-11T06:48:03.749Z,37.10
2023-02-11T06:53:06.459Z,41.90
2023-02-11T06:58:09.187Z,39.00
2023-02-11T07:03:11.990Z,41.20
2023-02-11T07:08:14.840Z,48.20
2023-02-11T07:13:17.549Z,34.80
2023-02-11T07:18:20.363Z,21.30
2023-02-11T07:23:23.094Z,43.40
2023-02-11T07:28:25.880Z,27.80
2023-02-11T07:33:28.654Z,41.00
2023-02-11T07:38:33.087Z,40.80
2023-02-11T07:43:37.490Z,36.50
2023-02-11T07:48:40.867Z,36.10
2023-02-11T07:53:43.963Z,31.70
2023-02-11T07:58:47.268Z,43.40
2023-02-11T08:03:50.169Z,40.10
2023-02-11T08:08:53.215Z,31.80
2023-02-11T08:13:57.175Z,35.90
2023-02-11T08:19:02.465Z,42.10
2023-02-11T08:24:06.358Z,29.80
2023-02-11T08:29:12.477Z,49.40
2023-02-11T08:34:18.439Z,29.40
2023-02-11T08:39:22.513Z,28.00
2023-02-11T08:44:26.714Z,32.00
2023-02-11T08:49:30.945Z,27.60
2023-02-11T08:54:33.752Z,31.10
2023-02-11T08:59:36.531Z,32.60
2023-02-11T09:04:39.259Z,29.70
2023-02-11T09:09:42.088Z,31.20
2023-02-11T09:14:44.868Z,33.20
2023-02-11T09:19:47.619Z,25.70
2023-02-11T09:24:50.484Z,25.90
2023-02-11T09:29:53.256Z,24.00
2023-02-11T09:34:56.061Z,21.10
2023-02-11T09:39:59.312Z,26.40
2023-02-11T09:45:05.142Z,24.20
2023-02-11T09:50:15.024Z,22.80
2023-02-11T10:00:44.072Z,28.00
2023-02-11T10:06:05.372Z,29.10
2023-02-11T10:11:30.967Z,32.50
2023-02-11T10:17:00.265Z,28.60
2023-02-11T10:22:22.126Z,24.70
2023-02-11T10:27:31.054Z,24.30
2023-02-11T10:33:00.065Z,27.80
2023-02-11T10:38:02.979Z,18.50
2023-02-11T10:43:11.427Z,18.20
2023-02-11T10:48:36.229Z,23.10
2023-02-11T10:53:39.643Z,19.60
2023-02-11T10:58:54.668Z,17.10
2023-02-11T11:03:59.996Z,24.40
2023-02-11T11:09:03.009Z,18.90
2023-02-11T11:14:05.794Z,18.10
2023-02-11T11:19:08.488Z,20.30
2023-02-11T11:24:29.463Z,16.10
2023-02-11T11:29:39.281Z,19.00
2023-02-11T11:40:22.074Z,14.90
2023-02-11T11:45:26.651Z,20.60
2023-02-11T11:50:37.489Z,17.40
2023-02-11T11:55:45.065Z,17.20
2023-02-11T12:01:20.073Z,16.30
2023-02-11T12:06:45.910Z,20.70
2023-02-11T12:12:24.331Z,18.20
2023-02-11T12:18:08.516Z,21.20
2023-02-11T12:23:49.724Z,14.60
2023-02-11T12:29:01.327Z,15.50
2023-02-11T12:34:29.118Z,18.40
2023-02-11T12:39:46.160Z,12.20
2023-02-11T12:45:07.283Z,17.30
2023-02-11T12:50:41.074Z,17.80
2023-02-11T12:55:48.910Z,17.00
2023-02-11T13:00:57.517Z,11.40
2023-02-11T13:06:07.378Z,14.10
2023-02-11T13:16:23.522Z,12.10
2023-02-11T13:21:34.999Z,12.40
2023-02-11T13:26:43.132Z,12.20
2023-02-11T13:32:07.139Z,10.00
2023-02-11T13:37:39.925Z,10.70
2023-02-11T13:43:04.126Z,9.40
2023-02-11T13:48:25.287Z,9.20
2023-02-11T13:53:29.602Z,9.40
2023-02-11T13:58:32.515Z,11.50
2023-02-11T14:03:57.633Z,9.30
2023-02-11T14:09:09.700Z,9.50
2023-02-11T14:14:23.847Z,11.40
2023-02-11T14:19:39.015Z,10.40
2023-02-11T14:24:46.280Z,8.50
2023-02-11T14:30:15.163Z,9.70
2023-02-11T14:35:50.289Z,11.40
2023-02-11T14:41:09.882Z,12.10
2023-02-11T14:46:16.632Z,12.60
2023-02-11T14:51:23.795Z,9.90
2023-02-11T14:56:31.238Z,10.00
2023-02-11T15:01:36.409Z,14.80
2023-02-11T15:06:43.059Z,12.20
2023-02-11T15:11:49.001Z,12.00
2023-02-11T15:16:54.887Z,9.40
2023-02-11T15:21:59.434Z,16.80
2023-02-11T15:27:08.280Z,13.80
2023-02-11T15:32:18.458Z,10.50
2023-02-11T15:37:29.974Z,14.40
2023-02-11T15:42:43.917Z,10.30
2023-02-11T15:48:15.261Z,16.60
2023-02-11T15:53:40.548Z,17.30
2023-02-11T15:58:47.639Z,10.90
2023-02-11T16:03:50.938Z,9.20
2023-02-11T16:09:02.122Z,13.60
2023-02-11T16:14:29.935Z,15.10
2023-02-11T16:19:34.368Z,14.20
2023-02-11T16:24:38.593Z,16.10
2023-02-11T16:29:46.922Z,15.10
2023-02-11T16:34:51.058Z,14.30
2023-02-11T16:39:54.674Z,15.40
2023-02-11T16:44:58.139Z,16.50
2023-02-11T16:50:02.725Z,18.70
2023-02-11T16:55:06.466Z,17.10
2023-02-11T17:00:11.256Z,16.60
2023-02-11T17:05:20.182Z,15.40
2023-02-11T17:10:24.998Z,14.50
2023-02-11T17:15:27.784Z,17.10
2023-02-11T17:20:30.684Z,15.80
2023-02-11T17:25:34.119Z,16.80
2023-02-11T17:30:39.946Z,14.60
2023-02-11T17:35:42.693Z,18.20
2023-02-11T17:40:45.494Z,6.00
2023-02-11T17:45:48.275Z,6.10
2023-02-11T17:50:51.194Z,3.30
2023-02-11T17:55:56.106Z,2.90
2023-02-11T18:00:59.079Z,6.50
2023-02-11T18:06:04.532Z,6.20
2023-02-11T18:11:11.569Z,10.20
2023-02-11T18:16:15.985Z,6.40
2023-02-11T18:21:20.403Z,5.50
2023-02-11T18:26:26.373Z,7.30
2023-02-11T18:31:30.205Z,5.80
2023-02-11T18:36:33.747Z,5.10
2023-02-11T18:41:36.493Z,3.60
2023-02-11T18:46:39.269Z,3.80
2023-02-11T18:51:42.761Z,1.90
2023-02-11T18:56:45.651Z,4.20
2023-02-11T19:01:48.487Z,2.40
2023-02-11T19:06:51.767Z,3.20
2023-02-11T19:11:55.491Z,5.90
2023-02-11T19:17:00.569Z,4.30
2023-02-11T19:22:09.181Z,3.70
2023-02-11T19:27:13.892Z,2.50
2023-02-11T19:32:16.727Z,3.10
2023-02-11T19:37:19.904Z,4.20
2023-02-11T19:42:23.300Z,4.40
2023-02-11T19:47:28.066Z,1.50
2023-02-11T19:52:31.001Z,3.40
2023-02-11T19:57:33.702Z,3.10
2023-02-11T20:02:38.164Z,4.70
2023-02-11T20:07:40.930Z,2.50
2023-02-11T20:12:43.625Z,6.80
2023-02-11T20:17:46.340Z,8.90
2023-02-11T20:22:49.053Z,11.90
2023-02-11T20:27:52.147Z,7.80
2023-02-11T20:32:55.451Z,16.30
2023-02-11T20:37:58.182Z,5.10
2023-02-11T20:43:00.848Z,7.50
2023-02-11T20:48:03.602Z,7.20
2023-02-11T20:53:06.551Z,5.60
2023-02-11T20:58:09.456Z,5.10
2023-02-11T21:03:12.165Z,5.00
2023-02-11T21:08:14.936Z,5.70
2023-02-11T21:13:18.219Z,8.60
2023-02-11T21:18:22.250Z,6.20
2023-02-11T21:23:25.617Z,3.50
2023-02-11T21:28:29.282Z,7.20
2023-02-11T21:33:35.741Z,7.10
2023-02-11T21:38:38.458Z,5.40
2023-02-11T21:43:41.174Z,6.40
2023-02-11T21:48:43.901Z,4.60
2023-02-11T21:53:47.221Z,4.80
2023-02-11T21:58:53.386Z,7.90
2023-02-11T22:03:56.857Z,8.50
2023-02-11T22:09:04.253Z,7.00
2023-02-11T22:14:07.373Z,10.60
2023-02-11T22:19:10.084Z,10.00
2023-02-11T22:24:12.774Z,11.00
2023-02-11T22:29:15.967Z,11.70
2023-02-11T22:34:18.884Z,11.90
2023-02-11T22:39:21.680Z,12.30
2023-02-11T22:44:25.521Z,7.80
2023-02-11T22:49:29.058Z,6.40
2023-02-11T22:54:31.737Z,10.40
2023-02-11T22:59:34.480Z,4.90
2023-02-11T23:04:37.246Z,4.80
2023-02-11T23:09:40.042Z,3.60
2023-02-11T23:14:42.828Z,2.50
2023-02-11T23:19:45.831Z,3.60
2023-02-11T23:24:48.562Z,3.20
2023-02-11T23:29:51.278Z,3.60
2023-02-11T23:34:54.174Z,2.50
2023-02-11T23:39:56.939Z,1.60
2023-02-11T23:44:59.727Z,2.40
2023-02-11T23:50:02.544Z,3.20
2023-02-11T23:55:06.448Z,2.60
